Time;durP1;ratioP1;P1;durP2;ratioP2;P2;SDS_P1;SDS_P2;PMS_P1;PMS_P2;Temp;Humidity;BMP_temperature;BMP_pressure;BME280_temperature;BME280_humidity;BME280_pressure;Samples;Min_cycle;Max_cycle;Signal;HPM_P1;HPM_P2
2021/11/23 00:01:37;;;;;;;;;;;;;;;8.69;99.33;100514.13;4975913;28;19962;-71
2021/11/23 00:04:04;;;;;;;;;;;;;;;8.65;99.14;100504.53;4976240;28;20000;-70
2021/11/23 00:06:33;;;;;;;;;;;;;;;8.58;99.66;100508.53;4974431;28;20348;-71
2021/11/23 00:08:58;;;;;;;;;;;;;;;8.60;99.79;100508.59;4976085;28;20285;-70
2021/11/23 00:11:24;;;;;;;;;;;;;;;8.52;99.78;100510.81;4975742;28;19914;-70
2021/11/23 00:13:49;;;;;;;;;;;;;;;8.48;100.00;100506.31;4975280;28;19940;-71
2021/11/23 00:16:14;;;;;;;;;;;;;;;8.44;100.00;100499.25;4975340;28;20376;-71
2021/11/23 00:18:40;;;;;;;;;;;;;;;8.26;100.00;100501.84;4975687;28;19988;-72
2021/11/23 00:21:05;;;;;;;;;;;;;;;8.32;100.00;100503.81;4975330;28;19937;-71
2021/11/23 00:23:30;;;;;;;;;;;;;;;8.39;100.00;100505.88;4975702;28;19921;-72
2021/11/23 00:25:56;;;;;;;;;;;;;;;8.41;100.00;100507.72;4975439;28;19914;-70
2021/11/23 00:28:23;;;;;;;;;;;;;;;8.49;100.00;100508.09;4975775;28;19917;-71
2021/11/23 00:30:48;;;;;;;;;;;;;;;8.54;99.62;100496.31;4974607;28;20006;-71
2021/11/23 00:33:14;;;;;;;;;;;;;;;8.59;99.35;100506.81;4976058;28;19919;-75
2021/11/23 00:35:40;;;;;;;;;;;;;;;8.47;99.59;100499.41;4973806;28;20415;-75
2021/11/23 00:38:05;;;;;;;;;;;;;;;8.42;100.00;100501.75;4974186;28;19918;-70
2021/11/23 00:40:30;;;;;;;;;;;;;;;8.41;100.00;100511.97;4974589;28;19922;-70
2021/11/23 00:42:57;;;;;;;;;;;;;;;8.39;100.00;100517.03;4975048;28;20289;-69
2021/11/23 00:45:23;;;;;;;;;;;;;;;8.25;100.00;100518.09;4974655;28;19918;-74
2021/11/23 00:47:48;;;;;;;;;;;;;;;8.20;100.00;100525.59;4974505;28;19914;-71
2021/11/23 00:50:14;;;;;;;;;;;;;;;8.18;100.00;100521.19;4974532;28;20299;-72
2021/11/23 00:52:41;;;;;;;;;;;;;;;8.22;100.00;100526.56;4974408;28;19913;-74
2021/11/23 00:55:06;;;;;;;;;;;;;;;8.09;100.00;100522.50;4973803;28;19924;-75
2021/11/23 00:57:32;;;;;;;;;;;;;;;8.04;100.00;100525.69;4974445;28;20005;-75
2021/11/23 00:59:57;;;;;;;;;;;;;;;8.09;100.00;100527.66;4974839;28;20361;-73
2021/11/23 01:02:22;;;;;;;;;;;;;;;8.00;100.00;100522.09;4974612;28;19914;-74
2021/11/23 01:04:47;;;;;;;;;;;;;;;8.05;100.00;100517.13;4974361;28;19914;-73
2021/11/23 01:07:13;;;;;;;;;;;;;;;8.18;100.00;100523.75;4974155;28;20320;-72
2021/11/23 01:09:38;;;;;;;;;;;;;;;7.98;100.00;100508.25;4974241;28;19964;-74
2021/11/23 01:12:04;;;;;;;;;;;;;;;7.96;100.00;100519.28;4973254;28;19940;-76
2021/11/23 01:14:29;;;;;;;;;;;;;;;7.97;100.00;100518.47;4974360;28;20372;-74
2021/11/23 01:16:54;;;;;;;;;;;;;;;8.02;100.00;100514.44;4974375;28;19922;-74
2021/11/23 01:19:20;;;;;;;;;;;;;;;8.05;100.00;100509.41;4952360;28;19922;-77
2021/11/23 01:21:45;;;;;;;;;;;;;;;8.14;100.00;100515.00;4951954;28;19919;-74
2021/11/23 01:24:14;;;;;;;;;;;;;;;8.12;100.00;100514.06;4952330;28;19915;-74
2021/11/23 01:26:41;;;;;;;;;;;;;;;8.17;100.00;100510.00;4952167;28;19915;-73
2021/11/23 01:29:07;;;;;;;;;;;;;;;8.23;100.00;100507.72;4952261;28;19969;-77
2021/11/23 01:31:32;;;;;;;;;;;;;;;8.30;100.00;100503.75;4952298;28;20009;-75
2021/11/23 01:33:58;;;;;;;;;;;;;;;8.32;100.00;100508.97;4951988;28;20416;-76
2021/11/23 01:36:23;;;;;;;;;;;;;;;8.37;100.00;100502.34;4936061;28;19918;-73
2021/11/23 01:38:48;;;;;;;;;;;;;;;8.32;100.00;100496.97;4952433;28;20470;-71
2021/11/23 01:41:14;;;;;;;;;;;;;;;8.01;100.00;100495.56;4952907;28;19914;-70
2021/11/23 01:43:39;;;;;;;;;;;;;;;8.08;100.00;100492.44;4952620;28;19922;-74
2021/11/23 01:46:05;;;;;;;;;;;;;;;8.22;100.00;100487.09;4952527;28;19937;-71
2021/11/23 01:48:31;;;;;;;;;;;;;;;8.31;100.00;100492.69;4952423;28;20001;-71
2021/11/23 01:50:56;;;;;;;;;;;;;;;8.37;100.00;100498.09;4967948;28;20410;-70
2021/11/23 01:53:22;;;;;;;;;;;;;;;8.31;99.90;100494.34;4973973;28;20004;-70
2021/11/23 01:55:47;;;;;;;;;;;;;;;8.16;100.00;100499.66;4974056;28;20001;-70
2021/11/23 01:58:13;;;;;;;;;;;;;;;8.09;100.00;100493.34;4973894;28;19914;-69
2021/11/23 02:00:39;;;;;;;;;;;;;;;8.04;100.00;100497.41;4974026;28;19914;-71
2021/11/23 02:03:05;;;;;;;;;;;;;;;7.88;100.00;100503.50;4973784;28;19914;-70
2021/11/23 02:05:30;;;;;;;;;;;;;;;7.88;100.00;100500.91;4973431;28;19914;-70
2021/11/23 02:07:56;;;;;;;;;;;;;;;7.89;100.00;100497.53;4973761;28;20056;-70
2021/11/23 02:10:21;;;;;;;;;;;;;;;7.96;100.00;100502.16;4973956;28;19921;-71
2021/11/23 02:12:47;;;;;;;;;;;;;;;7.99;100.00;100496.28;4972556;28;19914;-71
2021/11/23 02:15:12;;;;;;;;;;;;;;;7.99;100.00;100499.75;4973705;28;19914;-69
2021/11/23 02:17:38;;;;;;;;;;;;;;;8.02;100.00;100501.56;4973657;28;20269;-70
2021/11/23 02:20:07;;;;;;;;;;;;;;;8.05;100.00;100504.28;4972964;28;19920;-69
2021/11/23 02:22:32;;;;;;;;;;;;;;;8.06;99.77;100501.81;4973426;28;19914;-70
2021/11/23 02:24:58;;;;;;;;;;;;;;;8.03;99.71;100505.91;4971338;28;19937;-70
2021/11/23 02:27:23;;;;;;;;;;;;;;;7.92;100.00;100505.38;4972209;28;19914;-70
2021/11/23 02:29:48;;;;;;;;;;;;;;;7.94;100.00;100502.09;4973421;28;20010;-73
2021/11/23 02:32:13;;;;;;;;;;;;;;;7.97;100.00;100500.47;4973808;28;19913;-71
2021/11/23 02:34:39;;;;;;;;;;;;;;;7.99;100.00;100493.69;4972893;28;20311;-72
2021/11/23 02:37:04;;;;;;;;;;;;;;;8.03;100.00;100493.06;4973465;28;19914;-71
2021/11/23 02:39:29;;;;;;;;;;;;;;;8.02;100.00;100491.28;4972925;28;20296;-71
2021/11/23 02:41:55;;;;;;;;;;;;;;;8.02;100.00;100493.88;4972957;28;20311;-72
2021/11/23 02:44:21;;;;;;;;;;;;;;;8.05;99.78;100491.41;4972296;28;19925;-70
2021/11/23 02:46:46;;;;;;;;;;;;;;;8.04;99.64;100492.25;4972932;28;20369;-71
2021/11/23 02:49:12;;;;;;;;;;;;;;;8.07;99.83;100484.69;4973264;28;19914;-71
2021/11/23 02:51:38;;;;;;;;;;;;;;;8.09;99.22;100496.78;4973272;28;19920;-70
2021/11/23 02:54:04;;;;;;;;;;;;;;;8.09;99.11;100506.22;4951375;28;19914;-71
2021/11/23 02:56:29;;;;;;;;;;;;;;;8.13;99.28;100512.38;4951644;28;19944;-71
2021/11/23 02:58:55;;;;;;;;;;;;;;;8.05;99.27;100505.19;4951576;28;19918;-71
2021/11/23 03:01:21;;;;;;;;;;;;;;;8.05;99.21;100509.41;4950583;28;19965;-71
2021/11/23 03:03:47;;;;;;;;;;;;;;;8.09;99.29;100507.06;4951571;28;19915;-71
2021/11/23 03:06:16;;;;;;;;;;;;;;;8.13;99.49;100502.09;4951517;28;19914;-71
2021/11/23 03:08:41;;;;;;;;;;;;;;;8.11;99.40;100499.44;4951354;28;20392;-70
2021/11/23 03:11:07;;;;;;;;;;;;;;;8.05;99.54;100504.28;4951576;28;19973;-70
2021/11/23 03:13:32;;;;;;;;;;;;;;;7.98;99.68;100507.38;4951407;28;19915;-71
2021/11/23 03:15:57;;;;;;;;;;;;;;;7.77;100.00;100500.38;4951444;28;20026;-70
2021/11/23 03:18:23;;;;;;;;;;;;;;;7.80;100.00;100503.13;4951292;28;19915;-71
2021/11/23 03:20:50;;;;;;;;;;;;;;;7.89;100.00;100505.25;4951359;28;20293;-71
2021/11/23 03:23:16;;;;;;;;;;;;;;;7.97;100.00;100503.06;4951352;28;20298;-71
2021/11/23 03:25:41;;;;;;;;;;;;;;;8.01;99.78;100510.09;4967734;28;20033;-71
2021/11/23 03:28:06;;;;;;;;;;;;;;;7.99;99.40;100503.97;4972796;28;19921;-71
2021/11/23 03:30:32;;;;;;;;;;;;;;;7.98;99.87;100502.25;4972796;28;20311;-71
2021/11/23 03:32:59;;;;;;;;;;;;;;;8.03;100.00;100506.78;4972457;28;19965;-72
2021/11/23 03:35:27;;;;;;;;;;;;;;;8.07;99.47;100512.97;4972655;28;19914;-71
2021/11/23 03:37:53;;;;;;;;;;;;;;;8.07;99.60;100501.00;4973012;28;19918;-71
2021/11/23 03:40:20;;;;;;;;;;;;;;;8.08;99.81;100509.59;4972896;28;19977;-71
2021/11/23 03:42:45;;;;;;;;;;;;;;;8.02;99.26;100514.44;4972737;28;19914;-71
2021/11/23 03:45:11;;;;;;;;;;;;;;;8.01;99.48;100520.38;4986677;28;19921;-71
2021/11/23 03:47:36;;;;;;;;;;;;;;;7.74;100.00;100525.94;4972883;28;19914;-71
2021/11/23 03:50:03;;;;;;;;;;;;;;;7.79;100.00;100527.06;4971549;28;20440;-71
2021/11/23 03:52:28;;;;;;;;;;;;;;;7.81;100.00;100525.41;4972807;28;19922;-70
2021/11/23 03:54:53;;;;;;;;;;;;;;;7.81;100.00;100529.69;4972886;28;19925;-70
2021/11/23 03:57:19;;;;;;;;;;;;;;;7.82;100.00;100526.31;4972580;28;19914;-71
2021/11/23 03:59:47;;;;;;;;;;;;;;;7.86;100.00;100526.56;4972480;28;20348;-71
2021/11/23 04:02:14;;;;;;;;;;;;;;;7.86;100.00;100524.00;4986526;28;19925;-71
2021/11/23 04:04:39;;;;;;;;;;;;;;;7.83;100.00;100521.25;4989581;28;19914;-71
2021/11/23 04:07:04;;;;;;;;;;;;;;;7.76;100.00;100525.22;4989559;28;19941;-70
2021/11/23 04:09:29;;;;;;;;;;;;;;;7.73;100.00;100522.47;4989607;28;19921;-70
2021/11/23 04:11:55;;;;;;;;;;;;;;;7.65;100.00;100517.78;4989601;28;20364;-70
2021/11/23 04:14:20;;;;;;;;;;;;;;;7.59;100.00;100526.94;4992742;28;19913;-71
2021/11/23 04:16:46;;;;;;;;;;;;;;;7.60;100.00;100523.56;4993170;28;20009;-71
2021/11/23 04:19:11;;;;;;;;;;;;;;;7.60;100.00;100530.38;4993042;28;20035;-71
2021/11/23 04:21:36;;;;;;;;;;;;;;;7.67;100.00;100536.72;4992695;28;19921;-74
2021/11/23 04:24:02;;;;;;;;;;;;;;;7.66;100.00;100534.97;4990176;28;19917;-71
2021/11/23 04:26:27;;;;;;;;;;;;;;;7.67;100.00;100531.59;4992985;28;19913;-70
2021/11/23 04:28:52;;;;;;;;;;;;;;;7.71;100.00;100538.63;4993146;28;20009;-71
2021/11/23 04:31:18;;;;;;;;;;;;;;;7.72;100.00;100531.00;4993209;28;19949;-71
2021/11/23 04:33:43;;;;;;;;;;;;;;;7.68;100.00;100531.66;4993006;28;19924;-71
2021/11/23 04:36:08;;;;;;;;;;;;;;;7.71;100.00;100531.81;4980512;28;19919;-71
2021/11/23 04:38:34;;;;;;;;;;;;;;;7.77;100.00;100531.22;4975390;28;19973;-71
2021/11/23 04:40:59;;;;;;;;;;;;;;;7.80;100.00;100527.94;4974943;28;19918;-70
2021/11/23 04:43:25;;;;;;;;;;;;;;;7.85;100.00;100539.31;4975463;28;19921;-70
2021/11/23 04:45:50;;;;;;;;;;;;;;;7.83;100.00;100538.38;4975275;28;20319;-71
2021/11/23 04:48:15;;;;;;;;;;;;;;;7.85;100.00;100540.22;4974405;28;19930;-71
2021/11/23 04:50:41;;;;;;;;;;;;;;;7.83;100.00;100539.25;4975517;28;19914;-72
2021/11/23 04:53:08;;;;;;;;;;;;;;;7.81;100.00;100547.69;4975525;28;20297;-71
2021/11/23 04:55:33;;;;;;;;;;;;;;;7.85;100.00;100553.06;4975573;28;19936;-71
2021/11/23 04:57:59;;;;;;;;;;;;;;;7.89;100.00;100551.53;4975236;28;20380;-71
2021/11/23 05:00:24;;;;;;;;;;;;;;;7.89;100.00;100554.97;4990040;28;20308;-70
2021/11/23 05:02:50;;;;;;;;;;;;;;;7.94;100.00;100558.63;4975094;28;19914;-70
2021/11/23 05:05:15;;;;;;;;;;;;;;;7.98;100.00;100553.66;4975179;28;20376;-71
2021/11/23 05:07:41;;;;;;;;;;;;;;;7.99;100.00;100545.13;4975377;28;19914;-71
2021/11/23 05:10:07;;;;;;;;;;;;;;;8.01;100.00;100547.00;4974938;28;19914;-70
2021/11/23 05:12:33;;;;;;;;;;;;;;;8.03;100.00;100547.06;4975171;28;19920;-70
2021/11/23 05:14:58;;;;;;;;;;;;;;;8.08;100.00;100548.16;4973712;28;20012;-71
2021/11/23 05:17:24;;;;;;;;;;;;;;;8.11;99.98;100550.84;4974476;28;20343;-70
2021/11/23 05:19:49;;;;;;;;;;;;;;;8.11;99.86;100553.44;4975079;28;19927;-71
2021/11/23 05:22:14;;;;;;;;;;;;;;;8.05;100.00;100555.69;4974774;28;19914;-71
2021/11/23 05:24:40;;;;;;;;;;;;;;;8.03;100.00;100558.22;4973894;28;19914;-71
2021/11/23 05:27:06;;;;;;;;;;;;;;;8.03;100.00;100554.78;4974701;28;19914;-71
2021/11/23 05:29:32;;;;;;;;;;;;;;;8.05;100.00;100553.13;4974844;28;20340;-71
2021/11/23 05:31:57;;;;;;;;;;;;;;;8.05;99.91;100548.00;4974642;28;19920;-71
2021/11/23 05:34:22;;;;;;;;;;;;;;;8.01;100.00;100552.13;4974436;28;19914;-71
2021/11/23 05:36:48;;;;;;;;;;;;;;;7.93;100.00;100553.44;4989622;28;20009;-71
2021/11/23 05:39:13;;;;;;;;;;;;;;;7.91;100.00;100558.50;4974553;28;19926;-70
2021/11/23 05:41:40;;;;;;;;;;;;;;;7.89;100.00;100559.25;4973702;28;19918;-71
2021/11/23 05:44:06;;;;;;;;;;;;;;;7.87;100.00;100565.97;4974030;28;19956;-70
2021/11/23 05:46:32;;;;;;;;;;;;;;;7.92;100.00;100568.00;4974334;28;19964;-71
2021/11/23 05:48:57;;;;;;;;;;;;;;;7.92;100.00;100574.78;4974462;28;19914;-71
2021/11/23 05:51:23;;;;;;;;;;;;;;;7.91;100.00;100581.63;4974431;28;19914;-70
2021/11/23 05:53:48;;;;;;;;;;;;;;;7.94;100.00;100579.22;4974111;28;19914;-71
2021/11/23 05:56:13;;;;;;;;;;;;;;;7.97;100.00;100578.47;4974018;28;19914;-70
2021/11/23 05:58:39;;;;;;;;;;;;;;;7.98;100.00;100585.38;4973686;28;19987;-70
2021/11/23 06:01:05;;;;;;;;;;;;;;;8.03;100.00;100589.06;4974029;28;20376;-76
2021/11/23 06:03:31;;;;;;;;;;;;;;;8.00;100.00;100591.50;4971400;28;19914;-73
2021/11/23 06:05:56;;;;;;;;;;;;;;;8.07;100.00;100591.00;4973965;28;19953;-73
2021/11/23 06:08:22;;;;;;;;;;;;;;;8.14;100.00;100592.16;4974029;28;19968;-72
2021/11/23 06:10:47;;;;;;;;;;;;;;;8.17;100.00;100596.56;4974091;28;19920;-74
2021/11/23 06:13:12;;;;;;;;;;;;;;;8.19;100.00;100589.81;4973612;28;19930;-72
2021/11/23 06:15:40;;;;;;;;;;;;;;;8.16;100.00;100600.84;4973568;28;20300;-72
2021/11/23 06:18:07;;;;;;;;;;;;;;;8.14;100.00;100601.56;4988647;28;19914;-73
2021/11/23 06:20:33;;;;;;;;;;;;;;;8.18;100.00;100608.63;4972788;28;19922;-73
2021/11/23 06:22:59;;;;;;;;;;;;;;;8.18;100.00;100603.47;4972539;28;20331;-72
2021/11/23 06:25:25;;;;;;;;;;;;;;;8.20;100.00;100607.91;4973838;28;19914;-73
2021/11/23 06:27:51;;;;;;;;;;;;;;;8.24;100.00;100619.22;4973362;28;20004;-73
2021/11/23 06:30:16;;;;;;;;;;;;;;;8.22;100.00;100619.16;4973728;28;19921;-73
2021/11/23 06:32:41;;;;;;;;;;;;;;;8.05;100.00;100623.44;4973863;28;19921;-73
2021/11/23 06:35:07;;;;;;;;;;;;;;;7.91;100.00;100625.34;4973655;28;20410;-73
2021/11/23 06:37:32;;;;;;;;;;;;;;;7.93;100.00;100617.69;4973589;28;19920;-73
2021/11/23 06:39:58;;;;;;;;;;;;;;;8.00;100.00;100616.31;4973481;28;19937;-73
2021/11/23 06:42:23;;;;;;;;;;;;;;;8.09;100.00;100620.22;4972877;28;19914;-72
2021/11/23 06:44:48;;;;;;;;;;;;;;;8.18;100.00;100619.78;4973083;28;19937;-73
2021/11/23 06:47:14;;;;;;;;;;;;;;;8.21;100.00;100632.81;4973334;28;19969;-72
2021/11/23 06:49:39;;;;;;;;;;;;;;;8.31;100.00;100633.25;4967855;28;19996;-71
2021/11/23 06:52:05;;;;;;;;;;;;;;;8.37;100.00;100630.97;4964176;28;20357;-74
2021/11/23 06:54:30;;;;;;;;;;;;;;;8.35;100.00;100632.56;4973168;28;19933;-71
2021/11/23 06:56:57;;;;;;;;;;;;;;;8.35;100.00;100640.28;4972871;28;20297;-72
2021/11/23 06:59:22;;;;;;;;;;;;;;;8.37;100.00;100643.84;4973517;28;19997;-73
2021/11/23 07:01:48;;;;;;;;;;;;;;;8.39;100.00;100643.09;4970057;28;20012;-71
2021/11/23 07:04:13;;;;;;;;;;;;;;;8.34;100.00;100647.16;4973244;28;20491;-72
2021/11/23 07:06:39;;;;;;;;;;;;;;;8.39;100.00;100648.25;4972851;28;19917;-73
2021/11/23 07:09:04;;;;;;;;;;;;;;;8.36;100.00;100649.78;4973259;28;19972;-73
2021/11/23 07:11:29;;;;;;;;;;;;;;;8.37;100.00;100656.69;4972156;28;20315;-73
2021/11/23 07:13:55;;;;;;;;;;;;;;;8.39;100.00;100661.09;4988093;28;19924;-72
2021/11/23 07:16:20;;;;;;;;;;;;;;;8.43;100.00;100657.00;4973103;28;19921;-73
2021/11/23 07:18:45;;;;;;;;;;;;;;;8.51;100.00;100659.97;4984651;28;20503;-72
2021/11/23 07:21:12;;;;;;;;;;;;;;;8.57;100.00;100649.97;4985000;28;19918;-73
2021/11/23 07:23:37;;;;;;;;;;;;;;;8.66;99.71;100654.66;4969571;28;19949;-72
2021/11/23 07:26:03;;;;;;;;;;;;;;;8.76;99.78;100656.00;4968753;28;20020;-73
2021/11/23 07:28:28;;;;;;;;;;;;;;;8.77;99.54;100658.63;4968479;28;20009;-72
2021/11/23 07:30:56;;;;;;;;;;;;;;;8.80;98.05;100658.78;4972644;28;19914;-72
2021/11/23 07:33:22;;;;;;;;;;;;;;;8.86;98.33;100659.09;4986432;28;19914;-72
2021/11/23 07:35:47;;;;;;;;;;;;;;;8.88;98.54;100654.91;4968054;28;20395;-71
2021/11/23 07:38:12;;;;;;;;;;;;;;;8.90;99.05;100660.97;4972455;28;19914;-72
2021/11/23 07:40:38;;;;;;;;;;;;;;;8.85;99.14;100666.75;4967736;28;19962;-72
2021/11/23 07:43:03;;;;;;;;;;;;;;;8.89;99.72;100666.94;4972465;28;19921;-73
2021/11/23 07:45:29;;;;;;;;;;;;;;;8.97;99.84;100671.56;4972861;28;19918;-73
2021/11/23 07:47:54;;;;;;;;;;;;;;;9.06;99.29;100672.00;4973778;28;19913;-71
2021/11/23 07:50:20;;;;;;;;;;;;;;;9.13;99.25;100663.72;4975558;28;19921;-74
2021/11/23 07:52:46;;;;;;;;;;;;;;;9.16;99.55;100666.47;4972726;28;20312;-74
2021/11/23 07:55:11;;;;;;;;;;;;;;;9.25;99.89;100670.28;4975974;28;20339;-72
2021/11/23 07:57:37;;;;;;;;;;;;;;;9.21;98.88;100667.56;4974708;28;19914;-71
2021/11/23 08:00:04;;;;;;;;;;;;;;;9.22;99.15;100677.06;4973806;28;20316;-73
2021/11/23 08:02:29;;;;;;;;;;;;;;;9.25;99.41;100683.16;4980028;28;20372;-70
2021/11/23 08:04:54;;;;;;;;;;;;;;;9.19;98.54;100681.19;4965929;28;19921;-71
2021/11/23 08:07:21;;;;;;;;;;;;;;;9.26;99.33;100684.91;4979699;28;19914;-71
2021/11/23 08:09:46;;;;;;;;;;;;;;;9.34;98.91;100684.44;4973669;28;19914;-70
2021/11/23 08:12:11;;;;;;;;;;;;;;;9.37;98.66;100687.16;4974386;28;19925;-70
2021/11/23 08:14:37;;;;;;;;;;;;;;;9.41;97.78;100692.44;4976029;28;19918;-70
2021/11/23 08:17:02;;;;;;;;;;;;;;;9.44;97.53;100688.31;4975908;28;19953;-71
2021/11/23 08:19:27;;;;;;;;;;;;;;;9.41;98.67;100690.78;4975447;28;19946;-71
2021/11/23 08:21:53;;;;;;;;;;;;;;;9.41;99.04;100692.44;4975329;28;19914;-71
2021/11/23 08:24:18;;;;;;;;;;;;;;;9.42;98.73;100689.97;4975580;28;19918;-71
2021/11/23 08:26:44;;;;;;;;;;;;;;;9.37;98.97;100692.31;4975585;28;19920;-70
2021/11/23 08:29:09;;;;;;;;;;;;;;;9.47;98.90;100687.56;4975918;28;19952;-71
2021/11/23 08:31:35;;;;;;;;;;;;;;;9.51;98.90;100692.94;4975766;28;19921;-71
2021/11/23 08:34:04;;;;;;;;;;;;;;;9.47;99.01;100691.06;4974555;28;19921;-75
2021/11/23 08:36:29;;;;;;;;;;;;;;;9.55;99.24;100687.09;4975862;28;19914;-71
2021/11/23 08:38:55;;;;;;;;;;;;;;;9.67;98.82;100691.03;4975698;28;19922;-70
2021/11/23 08:41:20;;;;;;;;;;;;;;;9.73;98.68;100687.84;4967075;28;20574;-66
2021/11/23 08:43:45;;;;;;;;;;;;;;;9.66;99.28;100685.00;4975648;28;20018;-71
2021/11/23 08:46:11;;;;;;;;;;;;;;;9.77;99.09;100684.59;4975025;28;19910;-69
2021/11/23 08:48:37;;;;;;;;;;;;;;;9.82;100.00;100683.09;4975680;28;19914;-72
2021/11/23 08:51:05;;;;;;;;;;;;;;;9.81;99.76;100676.19;4974972;28;19910;-69
2021/11/23 08:53:31;;;;;;;;;;;;;;;9.93;100.00;100675.81;4975268;28;20378;-71
2021/11/23 08:55:57;;;;;;;;;;;;;;;9.80;98.89;100679.59;4989923;28;19969;-72
2021/11/23 08:58:23;;;;;;;;;;;;;;;9.82;100.00;100680.50;4975222;28;20366;-72
2021/11/23 09:00:48;;;;;;;;;;;;;;;9.79;100.00;100676.09;4974744;28;19917;-74
2021/11/23 09:03:13;;;;;;;;;;;;;;;9.82;99.48;100676.25;4988758;28;19941;-75
2021/11/23 09:05:39;;;;;;;;;;;;;;;9.87;100.00;100684.19;4978283;28;20377;-70
2021/11/23 09:08:05;;;;;;;;;;;;;;;9.94;99.63;100680.16;4972744;28;19968;-70
2021/11/23 09:10:35;;;;;;;;;;;;;;;10.00;100.00;100683.00;4971739;28;19925;-73
2021/11/23 09:13:01;;;;;;;;;;;;;;;10.10;99.58;100679.13;4970713;28;19918;-69
2021/11/23 09:15:27;;;;;;;;;;;;;;;10.10;100.00;100679.13;4973103;28;19921;-70
2021/11/23 09:17:54;;;;;;;;;;;;;;;10.14;99.58;100676.75;4970429;28;19918;-72
2021/11/23 09:20:19;;;;;;;;;;;;;;;10.24;98.36;100672.81;4975005;28;20398;-73
2021/11/23 09:22:46;;;;;;;;;;;;;;;10.33;98.12;100670.66;4974706;28;20020;-72
2021/11/23 09:25:12;;;;;;;;;;;;;;;10.43;97.38;100679.69;4975111;28;20009;-71
2021/11/23 09:27:38;;;;;;;;;;;;;;;10.51;97.63;100678.28;4975010;28;20005;-71
2021/11/23 09:30:04;;;;;;;;;;;;;;;10.64;96.83;100686.50;4974999;28;20007;-71
2021/11/23 09:32:30;;;;;;;;;;;;;;;10.72;96.69;100692.00;4972798;28;19952;-72
2021/11/23 09:34:56;;;;;;;;;;;;;;;10.77;95.88;100686.19;4974698;28;19957;-71
2021/11/23 09:37:21;;;;;;;;;;;;;;;10.80;95.41;100682.84;4974718;28;19934;-71
2021/11/23 09:39:47;;;;;;;;;;;;;;;10.84;95.08;100683.03;4974570;28;20444;-71
2021/11/23 09:42:13;;;;;;;;;;;;;;;10.92;94.44;100680.75;4974465;28;19965;-72
2021/11/23 09:44:39;;;;;;;;;;;;;;;10.97;94.44;100686.09;4974942;28;20023;-72
2021/11/23 09:47:06;;;;;;;;;;;;;;;11.07;94.51;100683.03;4974361;28;20376;-72
2021/11/23 09:49:31;;;;;;;;;;;;;;;11.11;94.46;100674.56;5004732;28;19956;-71
2021/11/23 09:51:58;;;;;;;;;;;;;;;11.16;94.91;100674.75;4974266;28;19918;-71
2021/11/23 09:54:23;;;;;;;;;;;;;;;11.15;95.35;100676.47;4989413;28;20332;-72
2021/11/23 09:56:48;;;;;;;;;;;;;;;11.16;97.29;100669.59;4974554;28;19914;-70
2021/11/23 09:59:14;;;;;;;;;;;;;;;11.26;96.93;100663.94;4974202;28;20388;-71
2021/11/23 10:02:00;;;;;;;;;;;;;;;11.32;96.61;100660.72;4974022;28;20000;-72
2021/11/23 10:04:26;;;;;;;;;;;;;;;11.46;95.69;100656.03;4973639;28;19913;-72
2021/11/23 10:07:02;;;;;;;;;;;;;;;11.55;95.35;100651.22;4974197;28;19914;-72
2021/11/23 10:09:32;;;;;;;;;;;;;;;11.51;94.44;100659.66;4988935;28;19918;-71
2021/11/23 10:12:20;;;;;;;;;;;;;;;11.49;94.87;100654.44;4992945;28;20004;-72
2021/11/23 10:15:04;;;;;;;;;;;;;;;11.44;94.77;100661.16;4993223;28;19913;-71
2021/11/23 10:17:30;;;;;;;;;;;;;;;11.48;94.52;100656.97;4958328;28;19913;-72
2021/11/23 10:19:55;;;;;;;;;;;;;;;11.54;95.31;100664.06;4974032;28;19921;-71
2021/11/23 10:22:31;;;;;;;;;;;;;;;11.59;94.49;100665.09;4973958;28;20017;-72
2021/11/23 10:25:00;;;;;;;;;;;;;;;11.72;95.19;100662.13;4973686;28;19972;-72
2021/11/23 10:27:26;;;;;;;;;;;;;;;11.84;95.28;100655.63;4973073;28;19925;-72
2021/11/23 10:29:51;;;;;;;;;;;;;;;11.89;95.31;100662.75;4973678;28;19914;-72
2021/11/23 10:32:17;;;;;;;;;;;;;;;12.02;94.67;100658.03;4956978;28;19918;-72
2021/11/23 10:34:43;;;;;;;;;;;;;;;12.13;95.20;100657.53;4954287;28;19914;-72
2021/11/23 10:37:09;;;;;;;;;;;;;;;12.28;94.53;100657.16;4971824;28;19914;-72
2021/11/23 10:39:34;;;;;;;;;;;;;;;12.32;92.66;100655.56;4993139;28;19929;-72
2021/11/23 10:42:00;;;;;;;;;;;;;;;12.33;91.88;100644.38;4990109;28;19972;-71
2021/11/23 10:44:27;;;;;;;;;;;;;;;12.37;91.79;100646.22;4973667;28;20270;-71
2021/11/23 10:46:57;;;;;;;;;;;;;;;12.46;93.07;100651.72;4973574;28;19910;-71
2021/11/23 10:49:33;;;;;;;;;;;;;;;12.49;92.19;100647.47;4973645;28;19913;-71
2021/11/23 10:51:58;;;;;;;;;;;;;;;12.53;91.72;100649.34;4973506;28;19917;-72
2021/11/23 10:54:24;;;;;;;;;;;;;;;12.58;91.73;100652.94;4973174;28;19914;-71
2021/11/23 10:56:56;;;;;;;;;;;;;;;12.64;90.95;100639.31;4973448;28;19921;-72
2021/11/23 10:59:22;;;;;;;;;;;;;;;12.69;91.02;100637.75;4973683;28;19921;-72
2021/11/23 11:01:47;;;;;;;;;;;;;;;12.79;90.47;100625.09;4973342;28;19918;-71
2021/11/23 11:04:14;;;;;;;;;;;;;;;12.83;90.42;100632.97;4969135;28;20359;-72
2021/11/23 11:06:39;;;;;;;;;;;;;;;12.91;91.30;100640.16;4953918;28;19918;-71
2021/11/23 11:09:05;;;;;;;;;;;;;;;13.01;90.73;100630.94;4957573;28;19918;-71
2021/11/23 11:11:31;;;;;;;;;;;;;;;13.10;91.69;100628.59;4980806;28;19960;-72
2021/11/23 11:13:56;;;;;;;;;;;;;;;13.04;90.55;100619.78;4978583;28;19965;-71
2021/11/23 11:16:22;;;;;;;;;;;;;;;13.04;90.13;100624.97;4972379;28;19914;-71
2021/11/23 11:19:02;;;;;;;;;;;;;;;13.05;90.21;100624.16;4964662;28;19915;-71
2021/11/23 11:21:28;;;;;;;;;;;;;;;13.14;91.91;100624.41;4959507;28;19918;-73
2021/11/23 11:23:57;;;;;;;;;;;;;;;13.24;92.69;100633.31;4966008;28;19926;-70
2021/11/23 11:26:36;;;;;;;;;;;;;;;13.30;90.35;100636.09;4971202;28;19914;-70
2021/11/23 11:29:02;;;;;;;;;;;;;;;13.30;89.96;100638.69;4976251;28;20012;-71
2021/11/23 11:31:32;;;;;;;;;;;;;;;13.31;89.78;100632.66;4966346;28;20017;-69
2021/11/23 11:34:16;;;;;;;;;;;;;;;13.26;90.28;100639.44;4964608;28;20360;-68
2021/11/23 11:36:42;;;;;;;;;;;;;;;13.27;89.16;100642.06;4974121;28;19938;-69
2021/11/23 11:39:07;;;;;;;;;;;;;;;13.31;88.88;100637.84;4976622;28;20376;-68
2021/11/23 11:41:34;;;;;;;;;;;;;;;13.27;89.15;100646.34;4976399;28;19914;-72
2021/11/23 11:44:26;;;;;;;;;;;;;;;13.27;91.08;100642.06;4974048;28;20277;-71
2021/11/23 11:47:01;;;;;;;;;;;;;;;13.23;88.38;100649.72;5002070;28;19914;-69
2021/11/23 11:49:45;;;;;;;;;;;;;;;13.22;88.14;100647.94;5003002;28;20011;-71
2021/11/23 11:52:10;;;;;;;;;;;;;;;13.16;87.53;100643.47;5001855;28;20406;-71
2021/11/23 11:54:36;;;;;;;;;;;;;;;13.07;88.32;100640.59;4994904;28;19921;-71
2021/11/23 11:57:01;;;;;;;;;;;;;;;13.09;88.73;100645.00;5000397;28;19945;-70
2021/11/23 11:59:30;;;;;;;;;;;;;;;13.14;89.36;100639.09;4991326;28;19961;-70
2021/11/23 12:02:03;;;;;;;;;;;;;;;13.12;88.17;100641.59;4982886;28;20068;-70
2021/11/23 12:04:31;;;;;;;;;;;;;;;13.13;88.27;100642.50;4999859;28;19922;-71
2021/11/23 12:06:56;;;;;;;;;;;;;;;13.11;90.42;100643.34;5002779;28;19914;-70
2021/11/23 12:09:32;;;;;;;;;;;;;;;13.15;88.79;100641.72;4999001;28;20433;-72
2021/11/23 12:12:17;;;;;;;;;;;;;;;13.12;88.13;100641.59;4996254;28;20016;-68
2021/11/23 12:14:52;;;;;;;;;;;;;;;13.07;90.14;100643.19;4933909;28;20377;-68
2021/11/23 12:17:50;;;;;;;;;;;;;;;13.14;89.14;100639.09;4943085;28;19927;-69
2021/11/23 12:20:41;;;;;;;;;;;;;;;13.11;89.53;100651.09;4906996;29;19915;-69
2021/11/23 12:23:22;;;;;;;;;;;;;;;13.03;89.18;100647.41;4855632;29;20060;-70
2021/11/23 12:26:06;;;;;;;;;;;;;;;13.07;90.85;100641.50;4828499;29;19950;-69
2021/11/23 12:28:32;;;;;;;;;;;;;;;13.14;89.71;100650.31;4830924;29;19920;-69
2021/11/23 12:31:17;;;;;;;;;;;;;;;13.21;89.81;100656.59;4849313;29;20025;-70
2021/11/23 12:33:50;;;;;;;;;;;;;;;13.23;89.93;100654.88;4844324;29;19920;-70
2021/11/23 12:36:18;;;;;;;;;;;;;;;13.27;91.28;100648.94;4851012;29;19968;-70